Time;durP1;ratioP1;P1;durP2;ratioP2;P2;SDS_P1;SDS_P2;PMS_P1;PMS_P2;Temp;Humidity;BMP_temperature;BMP_pressure;BME280_temperature;BME280_humidity;BME280_pressure;Samples;Min_cycle;Max_cycle;Signal;HPM_P1;HPM_P2
2023/05/19 00:02:19;;;;;;;3.28;1.08;;;16.20;48.30;;;;;;2489727;55;21932;-69
2023/05/19 00:04:47;;;;;;;3.55;0.93;;;16.10;48.20;;;;;;2485578;55;21805;-69
2023/05/19 00:07:14;;;;;;;3.42;1.20;;;16.10;48.30;;;;;;2261365;56;20953;-70
2023/05/19 00:09:40;;;;;;;2.42;0.90;;;16.10;48.40;;;;;;2490783;55;21453;-69
2023/05/19 00:12:09;;;;;;;3.75;1.30;;;16.10;48.50;;;;;;2485369;55;21008;-71
2023/05/19 00:14:37;;;;;;;2.58;1.00;;;16.00;48.40;;;;;;2261718;56;21000;-68
2023/05/19 00:17:04;;;;;;;2.58;0.88;;;16.00;48.50;;;;;;2489627;55;20957;-68
2023/05/19 00:19:31;;;;;;;2.03;0.85;;;16.00;48.60;;;;;;2484602;55;21031;-69
2023/05/19 00:21:57;;;;;;;2.87;0.98;;;16.00;48.70;;;;;;2487942;55;20952;-69
2023/05/19 00:24:24;;;;;;;4.72;1.05;;;15.90;49.30;;;;;;2490248;55;21423;-68
2023/05/19 00:26:50;;;;;;;3.58;1.15;;;15.90;48.70;;;;;;2261480;56;21732;-69
2023/05/19 00:29:17;;;;;;;2.55;1.05;;;15.90;48.90;;;;;;2261245;56;20942;-68
2023/05/19 00:31:44;;;;;;;3.25;1.20;;;15.90;49.00;;;;;;2261888;56;22083;-72
2023/05/19 00:34:11;;;;;;;3.28;1.40;;;15.90;49.00;;;;;;2261303;56;20933;-69
2023/05/19 00:36:37;;;;;;;3.45;1.23;;;15.90;49.00;;;;;;2261218;56;20941;-68
2023/05/19 00:39:03;;;;;;;3.42;0.98;;;15.80;49.00;;;;;;2261578;56;20920;-68
2023/05/19 00:41:31;;;;;;;3.40;1.50;;;15.80;49.00;;;;;;2261725;56;20941;-69
2023/05/19 00:43:57;;;;;;;4.03;1.27;;;15.80;49.10;;;;;;2261455;56;20961;-72
2023/05/19 00:46:24;;;;;;;3.12;1.40;;;15.80;49.20;;;;;;2260745;55;20967;-69
2023/05/19 00:48:51;;;;;;;3.28;1.30;;;15.80;49.20;;;;;;2242283;56;20947;-72
2023/05/19 00:51:18;;;;;;;3.55;1.27;;;15.80;49.30;;;;;;2261539;56;20966;-71
2023/05/19 00:53:47;;;;;;;3.78;1.08;;;15.80;49.40;;;;;;2261720;56;21832;-69
2023/05/19 00:56:17;;;;;;;4.90;1.52;;;15.80;49.40;;;;;;2261680;56;22176;-69
2023/05/19 00:58:44;;;;;;;4.10;1.23;;;15.80;49.50;;;;;;2489712;55;21023;-68
2023/05/19 01:01:13;;;;;;;2.92;1.30;;;15.70;49.30;;;;;;2489954;55;21020;-72
2023/05/19 01:03:39;;;;;;;3.53;1.60;;;15.70;49.30;;;;;;2261578;56;20917;-69
2023/05/19 01:06:06;;;;;;;2.70;1.20;;;15.80;49.40;;;;;;2260840;56;21771;-69
2023/05/19 01:08:34;;;;;;;2.42;1.05;;;15.70;49.40;;;;;;2261502;56;20948;-69
2023/05/19 01:11:00;;;;;;;2.55;1.12;;;15.70;49.40;;;;;;2261933;56;20948;-69
2023/05/19 01:13:28;;;;;;;2.80;1.05;;;15.70;49.40;;;;;;2262538;56;21005;-70
2023/05/19 01:16:13;;;;;;;3.30;1.45;;;15.70;49.40;;;;;;2261751;56;21413;-71
2023/05/19 01:19:09;;;;;;;2.75;1.15;;;15.60;49.50;;;;;;2262156;56;21001;-70
2023/05/19 01:23:46;;;;;;;4.18;1.17;;;15.50;49.30;;;;;;2485440;55;20934;-70
2023/05/19 01:26:41;;;;;;;2.67;0.95;;;15.60;49.50;;;;;;2261359;56;20928;-70
2023/05/19 01:30:01;;;;;;;4.05;1.55;;;15.60;49.30;;;;;;2489301;55;21626;-69
2023/05/19 01:32:30;;;;;;;2.62;1.23;;;15.50;49.20;;;;;;2261843;56;20952;-73
2023/05/19 01:34:57;;;;;;;2.72;1.23;;;15.50;49.10;;;;;;2490260;55;20953;-71
2023/05/19 01:37:23;;;;;;;3.40;1.37;;;15.40;49.00;;;;;;2490751;55;21024;-68
2023/05/19 01:39:49;;;;;;;3.37;1.17;;;15.40;49.10;;;;;;2490377;55;20916;-70
2023/05/19 01:42:16;;;;;;;2.70;1.12;;;15.30;49.20;;;;;;2261801;56;21399;-72
2023/05/19 01:44:42;;;;;;;2.70;1.20;;;15.30;49.20;;;;;;2261952;56;21749;-71
2023/05/19 01:47:09;;;;;;;3.87;1.30;;;15.20;49.20;;;;;;2489698;55;21470;-73
2023/05/19 01:49:35;;;;;;;3.97;1.30;;;15.20;49.30;;;;;;2485443;55;21005;-69
2023/05/19 01:52:04;;;;;;;4.03;1.10;;;15.20;49.30;;;;;;2262189;56;20957;-68
2023/05/19 01:54:37;;;;;;;2.00;1.00;;;15.20;49.30;;;;;;2262131;56;21043;-69
2023/05/19 01:57:37;;;;;;;5.45;1.60;;;15.10;49.30;;;;;;2261124;56;20977;-69
2023/05/19 02:00:15;;;;;;;3.75;1.27;;;15.10;49.50;;;;;;2262311;56;20940;-69
2023/05/19 02:03:04;;;;;;;4.35;1.40;;;15.10;49.40;;;;;;2490489;55;20940;-68
2023/05/19 02:05:39;;;;;;;3.20;1.30;;;15.00;49.40;;;;;;2490922;55;21454;-68
2023/05/19 02:08:12;;;;;;;3.20;1.20;;;14.90;49.20;;;;;;2261582;56;21064;-69
2023/05/19 02:10:42;;;;;;;6.93;1.27;;;14.90;49.20;;;;;;2490119;55;20928;-69
2023/05/19 02:13:09;;;;;;;4.80;1.40;;;14.90;49.30;;;;;;2489237;55;20988;-69
2023/05/19 02:15:39;;;;;;;2.95;1.23;;;14.80;49.20;;;;;;2486775;55;20940;-68
2023/05/19 02:18:05;;;;;;;3.30;1.30;;;14.80;49.30;;;;;;2261461;56;20928;-68
2023/05/19 02:20:31;;;;;;;4.35;1.70;;;14.70;49.20;;;;;;2261751;56;20952;-69
2023/05/19 02:22:59;;;;;;;3.33;1.40;;;14.60;49.20;;;;;;2261703;56;21467;-68
2023/05/19 02:25:26;;;;;;;3.80;1.33;;;14.60;49.30;;;;;;2262151;56;20932;-70
2023/05/19 02:27:53;;;;;;;3.25;1.40;;;14.60;49.40;;;;;;2261770;56;21349;-70
2023/05/19 02:30:19;;;;;;;5.10;1.75;;;14.60;49.50;;;;;;2261713;56;20953;-68
2023/05/19 02:32:46;;;;;;;3.10;1.10;;;14.50;49.40;;;;;;2490772;55;21764;-68
2023/05/19 02:35:13;;;;;;;3.58;1.62;;;14.50;49.50;;;;;;2490253;55;21766;-68
2023/05/19 02:37:39;;;;;;;3.15;1.20;;;14.40;49.50;;;;;;2262014;55;20909;-69
2023/05/19 02:40:06;;;;;;;3.92;1.40;;;14.40;49.60;;;;;;2489798;55;20960;-68
2023/05/19 02:42:42;;;;;;;3.67;1.40;;;14.40;49.70;;;;;;2260919;56;21008;-69
2023/05/19 02:45:09;;;;;;;3.12;1.33;;;14.30;49.80;;;;;;2261297;56;21500;-68
2023/05/19 02:47:37;;;;;;;2.85;1.23;;;14.30;49.70;;;;;;2490149;55;20996;-69
2023/05/19 02:50:07;;;;;;;3.75;1.50;;;14.30;49.80;;;;;;2490555;55;21742;-68
2023/05/19 02:52:35;;;;;;;2.85;1.37;;;14.30;49.90;;;;;;2490333;55;21851;-68
2023/05/19 02:55:01;;;;;;;7.10;1.83;;;14.30;50.00;;;;;;2261619;56;21000;-69
2023/05/19 02:57:30;;;;;;;4.55;1.50;;;14.30;50.00;;;;;;2490526;55;21060;-69
2023/05/19 02:59:57;;;;;;;4.37;1.87;;;14.20;50.00;;;;;;2261536;56;20909;-69
2023/05/19 03:02:23;;;;;;;3.12;1.10;;;14.20;50.00;;;;;;2487685;55;20969;-69
2023/05/19 03:04:50;;;;;;;2.78;1.17;;;14.20;50.10;;;;;;2260272;56;20916;-68
2023/05/19 03:07:23;;;;;;;3.30;1.25;;;14.20;50.20;;;;;;2488981;55;20972;-68
2023/05/19 03:09:51;;;;;;;2.40;1.08;;;14.20;50.20;;;;;;2264946;56;21012;-69
2023/05/19 03:12:17;;;;;;;4.40;1.52;;;14.20;50.30;;;;;;2489708;55;20908;-68
2023/05/19 03:14:43;;;;;;;4.00;1.55;;;14.20;50.30;;;;;;2261950;56;20952;-68
2023/05/19 03:17:10;;;;;;;4.32;1.37;;;14.20;50.30;;;;;;2490370;55;20976;-68
2023/05/19 03:19:37;;;;;;;5.15;1.75;;;14.20;50.40;;;;;;2490699;55;20948;-68
2023/05/19 03:22:04;;;;;;;3.25;1.20;;;14.20;50.40;;;;;;2261464;56;20916;-69
2023/05/19 03:24:30;;;;;;;4.80;1.60;;;14.20;50.50;;;;;;2490783;55;20960;-68
2023/05/19 03:26:56;;;;;;;5.00;1.85;;;14.20;50.60;;;;;;2490291;55;20976;-69
2023/05/19 03:29:23;;;;;;;3.55;1.70;;;14.20;50.60;;;;;;2262188;56;21028;-68
2023/05/19 03:31:50;;;;;;;2.92;1.33;;;14.20;50.60;;;;;;2262339;56;20928;-68
2023/05/19 03:34:17;;;;;;;6.82;1.23;;;14.20;50.60;;;;;;2261257;56;20960;-68
2023/05/19 03:36:43;;;;;;;4.03;1.70;;;14.20;50.60;;;;;;2490459;55;20917;-69
2023/05/19 03:39:10;;;;;;;2.85;1.12;;;14.10;50.50;;;;;;2490575;55;21102;-69
2023/05/19 03:41:37;;;;;;;2.95;1.20;;;14.20;50.70;;;;;;2490619;55;21553;-69
2023/05/19 03:44:03;;;;;;;4.65;1.50;;;14.20;50.70;;;;;;2488489;55;21885;-68
2023/05/19 03:46:30;;;;;;;3.78;1.40;;;14.20;50.70;;;;;;2485573;55;21493;-69
2023/05/19 03:48:56;;;;;;;2.22;1.02;;;14.20;50.80;;;;;;2489137;55;21591;-68
2023/05/19 03:51:22;;;;;;;2.08;0.90;;;14.20;50.80;;;;;;2490055;55;20917;-69
2023/05/19 03:53:49;;;;;;;3.37;1.20;;;14.20;50.80;;;;;;2463802;55;20935;-69
2023/05/19 03:56:17;;;;;;;3.65;1.20;;;14.20;50.70;;;;;;2489884;55;22265;-68
2023/05/19 03:58:45;;;;;;;3.22;1.30;;;14.30;50.80;;;;;;2261763;56;20984;-68
2023/05/19 04:01:13;;;;;;;3.58;1.30;;;14.20;50.70;;;;;;2260052;56;20976;-69
2023/05/19 04:03:40;;;;;;;4.37;1.40;;;14.30;50.80;;;;;;2489834;55;21071;-69
2023/05/19 04:06:06;;;;;;;3.70;1.15;;;14.30;51.40;;;;;;2261426;56;21451;-68
2023/05/19 04:08:33;;;;;;;4.68;1.58;;;14.30;50.90;;;;;;2490433;55;20948;-68
2023/05/19 04:11:00;;;;;;;4.10;1.20;;;14.30;50.90;;;;;;2490288;55;20956;-69
2023/05/19 04:13:29;;;;;;;3.47;1.25;;;14.30;50.90;;;;;;2490837;55;20951;-69
2023/05/19 04:15:57;;;;;;;3.70;1.30;;;14.20;50.70;;;;;;2261726;56;21382;-69
2023/05/19 04:18:25;;;;;;;4.80;1.45;;;14.30;50.80;;;;;;2261208;56;21012;-69
2023/05/19 04:20:52;;;;;;;4.05;1.08;;;14.20;50.70;;;;;;2261587;56;20940;-69
2023/05/19 04:23:18;;;;;;;4.12;1.15;;;14.20;50.60;;;;;;2490023;55;20961;-69
2023/05/19 04:25:47;;;;;;;3.33;1.10;;;14.20;50.60;;;;;;2261403;56;20932;-69
2023/05/19 04:28:14;;;;;;;2.53;1.20;;;14.20;50.60;;;;;;2260337;56;20924;-68
2023/05/19 04:30:41;;;;;;;4.50;1.48;;;14.20;50.60;;;;;;2261363;56;21865;-69
2023/05/19 04:33:08;;;;;;;3.85;1.23;;;14.20;50.60;;;;;;2489835;55;20941;-69
2023/05/19 04:35:36;;;;;;;2.50;1.10;;;14.10;50.60;;;;;;2263462;56;21034;-69
2023/05/19 04:38:03;;;;;;;3.03;1.10;;;14.10;50.60;;;;;;2259045;56;21784;-68
2023/05/19 04:40:31;;;;;;;2.92;1.10;;;14.10;50.70;;;;;;2260981;56;20980;-69
2023/05/19 04:43:00;;;;;;;3.72;1.23;;;14.10;50.80;;;;;;2490052;55;20960;-68
2023/05/19 04:45:27;;;;;;;3.10;1.15;;;14.10;50.80;;;;;;2261520;56;20997;-69
2023/05/19 04:47:56;;;;;;;2.75;1.17;;;14.10;50.80;;;;;;2262124;56;21560;-68
2023/05/19 04:50:23;;;;;;;6.05;1.60;;;14.10;50.90;;;;;;2490078;55;20921;-68
2023/05/19 04:52:49;;;;;;;4.68;1.48;;;14.20;50.90;;;;;;2490168;55;20993;-69
2023/05/19 04:55:16;;;;;;;2.92;1.10;;;14.10;50.90;;;;;;2261148;56;21621;-68
2023/05/19 04:57:42;;;;;;;2.37;1.02;;;14.10;50.90;;;;;;2490414;55;21841;-69
2023/05/19 05:00:12;;;;;;;4.00;1.17;;;14.10;50.90;;;;;;2489693;55;21659;-68
2023/05/19 05:02:41;;;;;;;2.83;1.10;;;14.10;50.90;;;;;;2490706;55;20933;-69
2023/05/19 05:05:09;;;;;;;2.78;1.10;;;14.10;50.90;;;;;;2489837;55;20952;-68
2023/05/19 05:07:35;;;;;;;3.97;1.10;;;14.20;51.00;;;;;;2261225;56;21004;-69
2023/05/19 05:10:03;;;;;;;2.62;1.00;;;14.20;51.00;;;;;;2261508;56;20946;-68
2023/05/19 05:12:31;;;;;;;3.83;1.12;;;14.10;51.00;;;;;;2259778;56;20996;-68
2023/05/19 05:14:58;;;;;;;3.28;1.10;;;14.10;50.90;;;;;;2261061;56;20932;-69
2023/05/19 05:17:31;;;;;;;2.95;1.30;;;14.10;51.00;;;;;;2261584;56;21922;-68
2023/05/19 05:19:57;;;;;;;3.40;0.90;;;14.10;50.90;;;;;;2261123;56;20969;-68
2023/05/19 05:22:24;;;;;;;2.45;1.02;;;14.10;51.00;;;;;;2489901;55;20925;-68
2023/05/19 05:24:50;;;;;;;3.17;1.20;;;14.10;51.00;;;;;;2261333;56;21051;-69
2023/05/19 05:27:17;;;;;;;3.28;1.05;;;14.10;51.10;;;;;;2260312;56;20936;-68
2023/05/19 05:29:43;;;;;;;4.80;1.20;;;14.10;51.10;;;;;;2261120;56;20921;-68
2023/05/19 05:32:10;;;;;;;2.33;1.00;;;14.20;51.20;;;;;;2261050;56;21438;-68
2023/05/19 05:34:38;;;;;;;2.80;1.20;;;14.10;51.10;;;;;;2261096;56;20964;-68
2023/05/19 05:37:07;;;;;;;4.20;1.20;;;14.20;51.30;;;;;;2489482;55;20999;-68
2023/05/19 05:39:37;;;;;;;3.40;1.00;;;14.20;51.30;;;;;;2260965;56;20944;-69
2023/05/19 05:42:03;;;;;;;3.28;1.20;;;14.20;51.30;;;;;;2259718;56;20960;-68
2023/05/19 05:44:29;;;;;;;3.60;1.02;;;14.20;51.30;;;;;;2261061;56;21516;-68
2023/05/19 05:46:56;;;;;;;2.67;1.05;;;14.20;51.30;;;;;;2261539;56;20984;-69
2023/05/19 05:49:23;;;;;;;3.72;1.10;;;14.20;51.30;;;;;;2489895;55;20921;-68
2023/05/19 05:51:50;;;;;;;2.47;1.17;;;14.20;51.40;;;;;;2489210;55;21521;-70
2023/05/19 05:54:21;;;;;;;2.65;0.90;;;14.20;51.40;;;;;;2260500;56;20940;-70
2023/05/19 05:56:48;;;;;;;3.37;1.00;;;14.30;51.50;;;;;;2490685;55;20965;-70
2023/05/19 05:59:17;;;;;;;3.00;0.93;;;14.30;51.50;;;;;;2261118;56;20961;-70
2023/05/19 06:01:44;;;;;;;3.08;0.98;;;14.30;51.60;;;;;;2260697;56;20936;-71
2023/05/19 06:04:10;;;;;;;2.42;1.08;;;14.30;51.60;;;;;;2261253;56;20957;-70
2023/05/19 06:06:37;;;;;;;2.65;1.00;;;14.40;51.80;;;;;;2261356;56;21539;-75
2023/05/19 06:09:05;;;;;;;2.85;1.05;;;14.40;51.80;;;;;;2260908;56;21021;-73
2023/05/19 06:11:31;;;;;;;2.67;1.17;;;14.40;51.90;;;;;;2489048;55;20932;-73
2023/05/19 06:13:58;;;;;;;5.07;1.65;;;14.40;51.90;;;;;;2261056;56;20984;-76
2023/05/19 06:16:25;;;;;;;3.08;1.00;;;14.50;51.90;;;;;;2261669;56;20901;-71
2023/05/19 06:18:52;;;;;;;5.05;1.45;;;14.60;51.90;;;;;;2490255;55;20981;-74
2023/05/19 06:21:21;;;;;;;3.92;1.48;;;14.60;52.10;;;;;;2490019;55;20940;-72
2023/05/19 06:23:47;;;;;;;2.97;1.30;;;14.60;52.20;;;;;;2489965;55;20936;-73
2023/05/19 06:26:14;;;;;;;3.58;1.50;;;14.70;52.20;;;;;;2489486;55;20973;-71
2023/05/19 06:28:41;;;;;;;4.07;1.35;;;14.70;52.20;;;;;;2489827;55;20964;-72
2023/05/19 06:31:09;;;;;;;5.22;1.67;;;14.80;52.20;;;;;;2490381;55;21027;-71
2023/05/19 06:33:35;;;;;;;3.35;1.33;;;14.90;52.20;;;;;;2261446;56;20944;-71
2023/05/19 06:36:02;;;;;;;3.60;1.23;;;14.90;52.10;;;;;;2490407;55;20933;-71
2023/05/19 06:38:28;;;;;;;4.07;1.40;;;14.90;52.10;;;;;;2488982;55;20981;-71
2023/05/19 06:40:54;;;;;;;3.22;1.30;;;15.00;52.10;;;;;;2490844;55;20953;-74
2023/05/19 06:43:24;;;;;;;3.08;1.30;;;15.00;52.10;;;;;;2490122;55;20932;-71
2023/05/19 06:45:51;;;;;;;3.45;1.23;;;15.00;52.20;;;;;;2489724;55;21038;-71
2023/05/19 06:48:20;;;;;;;2.83;1.17;;;15.10;52.40;;;;;;2486300;55;20996;-71
2023/05/19 06:50:46;;;;;;;3.50;1.55;;;15.10;52.40;;;;;;2261193;56;21877;-71
2023/05/19 06:53:13;;;;;;;5.25;1.58;;;15.20;52.50;;;;;;2261541;56;21008;-71
2023/05/19 06:55:39;;;;;;;4.18;1.85;;;15.30;52.70;;;;;;2263766;56;21018;-71
2023/05/19 06:58:13;;;;;;;5.40;1.98;;;15.30;52.60;;;;;;2468805;55;20959;-72
2023/05/19 07:00:39;;;;;;;4.05;1.73;;;15.40;52.70;;;;;;2489957;55;20965;-71
2023/05/19 07:03:06;;;;;;;4.18;1.60;;;15.50;52.70;;;;;;2260357;56;20949;-71
2023/05/19 07:05:34;;;;;;;4.35;1.80;;;15.50;52.70;;;;;;2261687;56;20985;-71
2023/05/19 07:08:01;;;;;;;4.65;1.50;;;15.60;52.50;;;;;;2490145;55;21449;-73
2023/05/19 07:10:27;;;;;;;4.18;1.80;;;15.60;52.40;;;;;;2260862;56;21454;-73
2023/05/19 07:12:54;;;;;;;4.72;1.48;;;15.70;52.30;;;;;;2489923;55;20920;-70
2023/05/19 07:15:20;;;;;;;5.20;1.70;;;15.70;52.30;;;;;;2260416;56;21115;-70
2023/05/19 07:17:46;;;;;;;4.20;1.60;;;15.80;52.20;;;;;;2490083;55;21382;-71
2023/05/19 07:20:13;;;;;;;4.07;1.70;;;15.80;52.10;;;;;;2489989;55;21801;-73
2023/05/19 07:22:39;;;;;;;4.75;1.83;;;15.80;52.20;;;;;;2490200;55;20972;-71
2023/05/19 07:25:07;;;;;;;6.78;1.92;;;15.80;52.20;;;;;;2261798;56;20956;-70
2023/05/19 07:27:33;;;;;;;5.20;1.50;;;15.90;52.20;;;;;;2261993;56;21453;-71
2023/05/19 07:29:59;;;;;;;4.78;1.70;;;15.90;52.20;;;;;;2490199;55;20909;-71
2023/05/19 07:32:26;;;;;;;5.37;1.42;;;15.90;52.40;;;;;;2490426;55;21398;-71
2023/05/19 07:34:52;;;;;;;4.30;1.40;;;16.00;52.70;;;;;;2261748;56;20997;-72
2023/05/19 07:37:19;;;;;;;3.70;1.77;;;16.10;52.80;;;;;;2486538;55;20949;-71
2023/05/19 07:39:47;;;;;;;3.92;1.87;;;16.10;52.80;;;;;;2479000;55;21028;-71
2023/05/19 07:42:13;;;;;;;4.53;1.80;;;16.20;53.00;;;;;;2489574;55;20862;-71
2023/05/19 07:44:40;;;;;;;4.05;1.70;;;16.30;53.20;;;;;;2490212;55;21458;-71
2023/05/19 07:47:07;;;;;;;2.62;1.30;;;16.40;53.10;;;;;;2488679;55;20991;-70
2023/05/19 07:49:34;;;;;;;3.35;1.37;;;16.50;53.10;;;;;;2260834;56;20952;-70
2023/05/19 07:52:06;;;;;;;3.78;1.45;;;16.60;53.10;;;;;;2489490;55;21557;-73
2023/05/19 07:54:32;;;;;;;5.85;1.60;;;16.70;53.10;;;;;;2489579;55;20967;-72
2023/05/19 07:56:59;;;;;;;3.83;1.67;;;16.80;53.00;;;;;;2483978;55;20999;-71
2023/05/19 07:59:27;;;;;;;3.70;1.65;;;16.90;52.80;;;;;;2489828;55;20940;-71
2023/05/19 08:01:54;;;;;;;4.28;1.50;;;16.90;52.80;;;;;;2260946;56;20928;-72
2023/05/19 08:04:20;;;;;;;3.42;1.60;;;17.00;52.80;;;;;;2260821;56;20960;-72
2023/05/19 08:06:47;;;;;;;3.47;1.40;;;17.10;53.00;;;;;;2480777;55;21053;-71
2023/05/19 08:09:13;;;;;;;4.72;1.58;;;17.20;53.00;;;;;;2465878;55;20986;-70
2023/05/19 08:11:40;;;;;;;4.55;1.60;;;17.20;53.50;;;;;;2261236;56;21890;-71
2023/05/19 08:14:06;;;;;;;3.22;1.55;;;17.30;53.00;;;;;;2485329;55;20929;-75
2023/05/19 08:16:33;;;;;;;5.32;1.75;;;17.40;53.00;;;;;;2485276;55;21474;-71
2023/05/19 08:19:03;;;;;;;5.25;1.62;;;17.50;53.10;;;;;;2486776;55;21035;-71
2023/05/19 08:21:33;;;;;;;5.57;1.70;;;17.60;53.20;;;;;;2239715;56;21894;-71
2023/05/19 08:24:00;;;;;;;4.22;1.62;;;17.70;53.20;;;;;;2489702;55;20988;-70
2023/05/19 08:26:27;;;;;;;5.03;2.00;;;17.80;53.20;;;;;;2261043;56;20920;-70
2023/05/19 08:28:53;;;;;;;4.30;1.90;;;17.80;53.10;;;;;;2489471;55;20948;-71
2023/05/19 08:31:21;;;;;;;4.10;1.77;;;17.90;53.00;;;;;;2260701;56;21872;-71
2023/05/19 08:33:47;;;;;;;4.82;1.80;;;18.00;52.80;;;;;;2260778;56;21327;-71
2023/05/19 08:36:14;;;;;;;4.25;1.50;;;18.10;52.70;;;;;;2489120;55;20925;-74
2023/05/19 08:38:40;;;;;;;3.40;1.58;;;18.20;52.70;;;;;;2489737;55;20964;-70
2023/05/19 08:41:07;;;;;;;4.18;1.75;;;18.30;52.60;;;;;;2489625;55;20996;-74
2023/05/19 08:43:38;;;;;;;3.95;1.40;;;18.30;52.50;;;;;;2260953;56;21460;-71
2023/05/19 08:46:06;;;;;;;5.65;1.40;;;18.40;52.50;;;;;;2260537;56;21016;-70
2023/05/19 08:48:36;;;;;;;5.50;2.10;;;18.50;52.30;;;;;;2489129;55;21006;-71
2023/05/19 08:51:24;;;;;;;4.53;1.50;;;18.50;52.20;;;;;;2488843;55;21084;-70
2023/05/19 08:53:51;;;;;;;3.22;1.50;;;18.60;52.00;;;;;;2261315;56;20932;-71
2023/05/19 08:56:20;;;;;;;3.53;1.70;;;18.60;52.00;;;;;;2262894;56;21834;-71
2023/05/19 08:58:50;;;;;;;4.65;1.67;;;18.70;52.10;;;;;;2485686;55;20968;-70
2023/05/19 09:01:18;;;;;;;3.25;1.25;;;18.80;52.10;;;;;;2489865;55;20932;-71
2023/05/19 09:03:48;;;;;;;4.53;1.55;;;18.80;52.00;;;;;;2262216;56;21643;-70
2023/05/19 09:06:15;;;;;;;4.40;1.52;;;18.80;51.90;;;;;;2257953;56;21685;-70
2023/05/19 09:08:41;;;;;;;4.28;1.80;;;18.90;51.90;;;;;;2488666;55;20944;-73
2023/05/19 09:11:10;;;;;;;4.53;1.80;;;19.00;51.90;;;;;;2255983;56;21083;-70
2023/05/19 09:13:37;;;;;;;4.95;1.80;;;19.00;51.70;;;;;;2489324;55;21000;-71
2023/05/19 09:16:06;;;;;;;3.10;1.50;;;19.00;51.60;;;;;;2260773;56;20960;-70
2023/05/19 09:18:33;;;;;;;4.82;1.50;;;19.10;51.50;;;;;;2489484;55;21004;-75
2023/05/19 09:21:01;;;;;;;3.20;1.50;;;19.10;51.50;;;;;;2261491;56;21469;-75
2023/05/19 09:23:28;;;;;;;4.30;1.50;;;19.20;51.50;;;;;;2260637;56;20948;-72
2023/05/19 09:25:56;;;;;;;4.20;1.83;;;19.20;51.50;;;;;;2489690;55;20945;-71
2023/05/19 09:28:40;;;;;;;3.87;1.30;;;19.30;51.70;;;;;;2488893;55;21533;-71
2023/05/19 09:31:08;;;;;;;4.15;1.58;;;19.40;51.60;;;;;;2488841;55;21044;-73
2023/05/19 09:33:38;;;;;;;3.87;1.58;;;19.40;51.60;;;;;;2261413;56;21571;-71
2023/05/19 09:36:07;;;;;;;3.72;1.35;;;19.40;51.20;;;;;;2489738;55;21503;-69
2023/05/19 09:38:36;;;;;;;4.03;1.70;;;19.50;51.20;;;;;;2261074;56;21615;-71
2023/05/19 09:41:03;;;;;;;4.70;1.52;;;19.50;51.10;;;;;;2261124;56;20928;-71
2023/05/19 09:43:32;;;;;;;6.43;1.60;;;19.60;51.70;;;;;;2260308;56;21012;-69
2023/05/19 09:46:12;;;;;;;3.53;1.50;;;19.60;51.00;;;;;;2261652;56;21046;-74
2023/05/19 09:48:39;;;;;;;4.25;1.60;;;19.70;50.80;;;;;;2259762;56;21013;-71
2023/05/19 09:51:06;;;;;;;3.80;1.27;;;19.70;50.90;;;;;;2489466;55;20926;-74
2023/05/19 09:53:33;;;;;;;4.12;1.42;;;19.70;50.80;;;;;;2489253;55;21454;-71
2023/05/19 09:56:03;;;;;;;5.70;1.25;;;19.80;50.90;;;;;;2489879;55;20976;-73
2023/05/19 09:58:35;;;;;;;6.10;1.30;;;19.80;50.90;;;;;;2260627;56;20953;-72
2023/05/19 10:01:03;;;;;;;5.87;1.60;;;19.90;50.90;;;;;;2490099;55;21004;-72
2023/05/19 10:03:31;;;;;;;4.10;1.50;;;19.90;50.70;;;;;;2488574;55;21514;-70
2023/05/19 10:06:02;;;;;;;2.92;1.27;;;19.90;50.60;;;;;;2486179;55;21425;-75
2023/05/19 10:08:29;;;;;;;4.00;1.25;;;20.00;50.80;;;;;;2261942;56;20935;-71
2023/05/19 10:10:56;;;;;;;7.03;1.45;;;20.00;50.50;;;;;;2490252;55;20976;-71
2023/05/19 10:13:22;;;;;;;4.90;1.60;;;20.10;50.40;;;;;;2485396;55;21494;-75
2023/05/19 10:15:51;;;;;;;4.03;1.27;;;20.10;50.10;;;;;;2488750;55;20980;-74
2023/05/19 10:18:25;;;;;;;3.80;1.23;;;20.10;50.00;;;;;;2489525;55;21393;-71
2023/05/19 10:20:54;;;;;;;2.42;1.15;;;20.20;50.20;;;;;;2489985;55;21052;-70
2023/05/19 10:23:21;;;;;;;4.15;1.20;;;20.20;50.10;;;;;;2489189;55;21060;-71
2023/05/19 10:25:54;;;;;;;3.55;1.10;;;20.20;50.10;;;;;;2488700;55;21464;-70
2023/05/19 10:28:23;;;;;;;5.30;1.27;;;20.20;50.10;;;;;;2490971;55;20939;-69
2023/05/19 10:30:52;;;;;;;3.00;1.30;;;20.20;50.20;;;;;;2490550;55;20943;-74
2023/05/19 10:33:20;;;;;;;3.65;1.40;;;20.20;50.10;;;;;;2485142;55;21109;-72
2023/05/19 10:36:10;;;;;;;3.03;1.12;;;20.20;50.00;;;;;;2486390;55;21540;-76
2023/05/19 10:39:12;;;;;;;3.53;0.98;;;20.30;50.00;;;;;;2490032;55;20968;-71
2023/05/19 10:42:16;;;;;;;2.60;0.93;;;20.40;49.70;;;;;;2478302;55;21027;-72
2023/05/19 10:45:19;;;;;;;2.40;0.90;;;20.40;49.60;;;;;;2481821;55;21016;-74
2023/05/19 10:47:46;;;;;;;2.80;1.10;;;20.50;49.70;;;;;;2261946;56;21016;-76
2023/05/19 10:50:14;;;;;;;2.65;1.08;;;20.50;49.70;;;;;;2489765;55;21526;-74
2023/05/19 10:52:43;;;;;;;2.90;1.20;;;20.50;49.40;;;;;;2486653;55;20952;-73
2023/05/19 10:55:16;;;;;;;2.37;1.05;;;20.60;49.40;;;;;;2266010;56;22119;-72
2023/05/19 10:57:59;;;;;;;2.80;0.90;;;20.60;49.40;;;;;;2485573;55;20984;-72
2023/05/19 11:00:29;;;;;;;2.53;0.90;;;20.60;49.40;;;;;;2489297;55;20980;-73
2023/05/19 11:03:12;;;;;;;2.60;0.90;;;20.60;49.50;;;;;;2484801;55;21050;-70
2023/05/19 11:05:38;;;;;;;;;;;20.60;49.00;;;;;;2262483;56;21383;-71
2023/05/19 11:08:06;;;;;;;2.70;0.95;;;20.70;49.30;;;;;;2259992;56;20053;-69
2023/05/19 11:10:34;;;;;;;3.03;1.05;;;20.70;49.10;;;;;;2260850;56;20944;-70
2023/05/19 11:13:10;;;;;;;2.95;0.90;;;20.70;48.90;;;;;;2264233;56;21471;-72
2023/05/19 11:15:45;;;;;;;2.85;0.95;;;20.70;48.80;;;;;;2261532;56;20948;-73
2023/05/19 11:18:20;;;;;;;4.53;1.20;;;20.70;48.70;;;;;;2478911;55;21502;-70
2023/05/19 11:21:01;;;;;;;4.47;1.15;;;20.70;48.30;;;;;;2480846;55;21044;-70
2023/05/19 11:23:38;;;;;;;2.35;0.90;;;20.70;48.40;;;;;;2489734;55;21008;-71
2023/05/19 11:26:09;;;;;;;3.08;1.15;;;20.70;48.50;;;;;;2485565;55;20938;-71
2023/05/19 11:28:42;;;;;;;2.90;1.10;;;20.70;48.60;;;;;;2488776;55;21806;-70
2023/05/19 11:31:09;;;;;;;3.45;1.30;;;20.70;48.70;;;;;;2482886;55;21034;-72
2023/05/19 11:33:38;;;;;;;2.80;0.90;;;20.70;48.50;;;;;;2484605;55;20921;-68
2023/05/19 11:36:07;;;;;;;3.33;1.10;;;20.70;48.40;;;;;;2484348;55;21722;-73
2023/05/19 11:38:38;;;;;;;3.20;1.12;;;20.70;48.30;;;;;;2478144;55;20979;-69
2023/05/19 11:41:11;;;;;;;3.78;1.30;;;20.80;48.30;;;;;;2256439;56;20968;-71
2023/05/19 11:43:44;;;;;;;4.32;1.15;;;20.80;48.00;;;;;;2473987;55;21184;-71
2023/05/19 11:46:15;;;;;;;2.70;1.12;;;20.80;48.10;;;;;;2479440;55;20982;-70
2023/05/19 11:48:46;;;;;;;3.15;1.10;;;20.80;48.20;;;;;;2471580;55;20947;-73
2023/05/19 11:51:16;;;;;;;2.25;0.90;;;20.80;48.10;;;;;;2480197;55;21072;-74
2023/05/19 11:53:44;;;;;;;2.90;1.08;;;20.70;48.00;;;;;;2487425;55;21077;-72
2023/05/19 11:56:12;;;;;;;2.95;1.40;;;20.90;48.10;;;;;;2469204;55;20945;-72
2023/05/19 11:58:42;;;;;;;2.50;0.90;;;20.90;48.00;;;;;;2256667;56;20943;-71
2023/05/19 12:01:10;;;;;;;2.75;1.00;;;20.90;47.90;;;;;;2261571;56;20942;-73
2023/05/19 12:03:40;;;;;;;3.05;1.48;;;20.90;47.80;;;;;;2261265;56;20916;-74
2023/05/19 12:06:09;;;;;;;3.03;1.10;;;21.00;47.60;;;;;;2490400;55;21831;-73
2023/05/19 12:08:38;;;;;;;3.92;0.93;;;21.00;47.60;;;;;;2490105;55;20988;-71
2023/05/19 12:11:08;;;;;;;2.62;1.10;;;21.00;47.60;;;;;;2484292;55;21050;-71
2023/05/19 12:13:38;;;;;;;3.25;1.10;;;21.00;47.70;;;;;;2262432;56;20944;-71
2023/05/19 12:16:07;;;;;;;2.22;0.98;;;21.00;47.70;;;;;;2262700;56;21750;-71
2023/05/19 12:18:37;;;;;;;3.50;0.95;;;21.00;47.60;;;;;;2490702;55;20948;-74
2023/05/19 12:21:03;;;;;;;3.17;1.25;;;21.00;47.60;;;;;;2260686;56;20948;-70
2023/05/19 12:23:32;;;;;;;2.08;0.85;;;21.00;47.60;;;;;;2489842;55;20924;-71
2023/05/19 12:25:59;;;;;;;4.75;1.00;;;21.10;47.50;;;;;;2489718;55;21029;-73
2023/05/19 12:28:29;;;;;;;2.62;0.90;;;21.10;47.60;;;;;;2485059;55;21113;-76
2023/05/19 12:30:57;;;;;;;3.25;1.05;;;21.10;47.70;;;;;;2489621;55;20953;-72
2023/05/19 12:33:23;;;;;;;2.65;1.10;;;21.10;48.30;;;;;;2261049;56;21005;-71
2023/05/19 12:35:49;;;;;;;2.65;1.20;;;21.10;47.90;;;;;;2260803;56;21068;-72
2023/05/19 12:38:16;;;;;;;2.45;1.00;;;21.20;47.90;;;;;;2485443;55;21039;-73
2023/05/19 12:40:44;;;;;;;2.65;1.05;;;21.20;47.70;;;;;;2485837;55;21846;-69
2023/05/19 12:43:23;;;;;;;4.80;1.10;;;21.20;47.70;;;;;;2488178;55;21023;-71
2023/05/19 12:45:49;;;;;;;2.62;1.00;;;21.20;47.60;;;;;;2489610;55;20921;-71
2023/05/19 12:48:16;;;;;;;6.60;1.23;;;21.20;47.70;;;;;;2260925;56;20999;-75
2023/05/19 12:50:43;;;;;;;3.95;1.00;;;21.30;47.70;;;;;;2490002;55;21021;-70
2023/05/19 12:53:10;;;;;;;6.32;1.10;;;21.30;47.50;;;;;;2489643;55;20908;-72
2023/05/19 12:55:44;;;;;;;5.07;0.90;;;21.30;47.60;;;;;;2260708;56;21004;-71
2023/05/19 12:58:10;;;;;;;3.08;1.02;;;21.30;47.40;;;;;;2260276;56;21901;-72
2023/05/19 13:00:43;;;;;;;2.70;1.05;;;21.40;47.60;;;;;;2489916;55;20920;-73